Time;durP1;ratioP1;P1;durP2;ratioP2;P2;SDS_P1;SDS_P2;PMS_P1;PMS_P2;Temp;Humidity;BMP_temperature;BMP_pressure;BME280_temperature;BME280_humidity;BME280_pressure;Samples;Min_cycle;Max_cycle;Signal;HPM_P1;HPM_P2
2021/05/27 00:01:01;;;;;;;1999.90;999.90;;;12.10;99.90;;;;;;5067539;28;20164;-82
2021/05/27 00:03:27;;;;;;;1999.90;999.90;;;12.20;99.90;;;;;;5066652;28;20718;-82
2021/05/27 00:05:53;;;;;;;1999.90;999.90;;;12.10;99.90;;;;;;5065592;28;20268;-82
2021/05/27 00:08:19;;;;;;;1999.90;999.90;;;12.20;99.90;;;;;;5065024;28;20184;-82
2021/05/27 00:10:45;;;;;;;1999.90;999.90;;;12.20;99.90;;;;;;5067837;28;20247;-82
2021/05/27 00:13:10;;;;;;;1999.90;999.90;;;12.20;99.90;;;;;;5049054;28;20200;-81
2021/05/27 00:15:37;;;;;;;1999.90;999.90;;;12.20;99.90;;;;;;5067311;28;20172;-82
2021/05/27 00:18:03;;;;;;;1999.90;999.90;;;12.20;99.90;;;;;;5066539;28;20185;-82
2021/05/27 00:20:29;;;;;;;1999.90;999.90;;;12.10;99.90;;;;;;5066813;28;20165;-82
2021/05/27 00:22:54;;;;;;;1999.90;999.90;;;12.20;99.90;;;;;;5070341;28;20180;-82
2021/05/27 00:25:20;;;;;;;1999.90;999.90;;;12.10;99.90;;;;;;5052064;28;20185;-82
2021/05/27 00:27:48;;;;;;;1999.90;999.90;;;12.10;99.90;;;;;;5069516;28;20176;-82
2021/05/27 00:30:15;;;;;;;1999.90;999.90;;;12.10;99.90;;;;;;5068340;28;20188;-82
2021/05/27 00:32:41;;;;;;;1999.90;999.90;;;12.10;99.90;;;;;;5068806;28;20161;-82
2021/05/27 00:35:08;;;;;;;1999.90;999.90;;;12.00;99.90;;;;;;5069660;28;20164;-82
2021/05/27 00:37:34;;;;;;;1999.90;999.90;;;12.00;99.90;;;;;;5069173;28;20163;-82
2021/05/27 00:40:00;;;;;;;1999.90;999.90;;;12.00;99.90;;;;;;5052333;28;20612;-82
2021/05/27 00:42:26;;;;;;;1999.90;999.90;;;12.00;99.90;;;;;;5070584;28;20171;-81
2021/05/27 00:45:09;;;;;;;1999.90;999.90;;;12.10;99.90;;;;;;5069480;28;20184;-82
2021/05/27 00:47:36;;;;;;;1999.90;999.90;;;12.10;99.90;;;;;;5068338;28;20395;-82
2021/05/27 00:50:03;;;;;;;1999.90;999.90;;;12.10;99.90;;;;;;5068918;28;20630;-82
2021/05/27 00:52:30;;;;;;;1999.90;999.90;;;12.10;99.90;;;;;;5068185;28;20192;-82
2021/05/27 00:54:59;;;;;;;1999.90;999.90;;;12.00;99.90;;;;;;5068961;28;20169;-82
2021/05/27 00:57:37;;;;;;;1999.90;999.90;;;12.10;99.90;;;;;;5050457;28;20179;-82
2021/05/27 01:00:26;;;;;;;1999.90;999.90;;;12.10;99.90;;;;;;5069324;28;20179;-82
2021/05/27 01:02:53;;;;;;;1999.90;999.90;;;12.00;99.90;;;;;;5062493;28;20179;-82
2021/05/27 01:05:19;;;;;;;1999.90;999.90;;;12.00;99.90;;;;;;5069301;28;20192;-82
2021/05/27 01:07:45;;;;;;;1999.90;999.90;;;12.00;99.90;;;;;;5069386;28;20659;-82
2021/05/27 01:10:13;;;;;;;1999.90;999.90;;;11.90;99.90;;;;;;5068001;28;20214;-82
2021/05/27 01:12:39;;;;;;;1999.90;999.90;;;11.90;99.90;;;;;;5069229;28;20157;-82
2021/05/27 01:15:32;;;;;;;1999.90;999.90;;;11.90;99.90;;;;;;5069358;28;20240;-82
2021/05/27 01:18:11;;;;;;;1999.90;999.90;;;11.90;99.90;;;;;;5069251;28;20273;-82
2021/05/27 01:20:37;;;;;;;1999.90;999.90;;;12.00;99.90;;;;;;5068260;28;20179;-82
2021/05/27 01:23:03;;;;;;;1999.90;999.90;;;12.00;99.90;;;;;;5068300;28;20199;-82
2021/05/27 01:25:30;;;;;;;1999.90;999.90;;;12.00;99.90;;;;;;5069365;28;20188;-82
2021/05/27 01:27:56;;;;;;;1999.90;999.90;;;12.00;99.90;;;;;;5068843;28;20200;-82
2021/05/27 01:30:22;;;;;;;1999.90;999.90;;;12.00;99.90;;;;;;5067783;28;20167;-82
2021/05/27 01:32:48;;;;;;;1999.90;999.90;;;11.90;99.90;;;;;;5068231;28;20283;-82
2021/05/27 01:35:22;;;;;;;1999.90;999.90;;;11.90;99.90;;;;;;5068169;28;20172;-82
2021/05/27 01:37:48;;;;;;;1999.90;999.90;;;11.90;99.90;;;;;;5067839;28;20271;-82
2021/05/27 01:40:17;;;;;;;1999.90;999.90;;;11.90;99.90;;;;;;5067511;28;20172;-82
2021/05/27 01:42:42;;;;;;;1999.90;999.90;;;11.90;99.90;;;;;;5049802;28;20171;-82
2021/05/27 01:45:09;;;;;;;1999.90;999.90;;;11.80;99.90;;;;;;5068482;28;20271;-82
2021/05/27 01:47:35;;;;;;;1999.90;999.90;;;11.90;99.90;;;;;;5067803;28;20173;-82
2021/05/27 01:50:01;;;;;;;1999.90;999.90;;;11.80;99.90;;;;;;5067619;28;20168;-82
2021/05/27 01:52:26;;;;;;;1999.90;999.90;;;11.90;99.90;;;;;;5067389;28;20176;-82
2021/05/27 01:54:52;;;;;;;1999.90;999.90;;;11.80;99.90;;;;;;5067034;28;20164;-82
2021/05/27 01:57:17;;;;;;;1999.90;999.90;;;11.80;99.90;;;;;;5068468;28;20176;-82
2021/05/27 01:59:43;;;;;;;1999.90;999.90;;;11.80;99.90;;;;;;5068182;28;20206;-82
2021/05/27 02:02:09;;;;;;;1999.90;999.90;;;11.80;99.90;;;;;;5067916;28;20200;-82
2021/05/27 02:04:34;;;;;;;1999.90;999.90;;;11.90;99.90;;;;;;5068016;28;20164;-82
2021/05/27 02:07:12;;;;;;;1999.90;999.90;;;11.80;99.90;;;;;;5068920;28;20161;-81
2021/05/27 02:09:38;;;;;;;1999.90;999.90;;;11.70;99.90;;;;;;5066894;28;20202;-82
2021/05/27 02:12:04;;;;;;;1999.90;999.90;;;11.70;99.90;;;;;;5048508;28;20173;-82
2021/05/27 02:14:30;;;;;;;1999.90;999.90;;;11.80;99.90;;;;;;5067655;28;20399;-82
2021/05/27 02:16:56;;;;;;;1999.90;999.90;;;11.80;99.90;;;;;;5067578;28;20199;-82
2021/05/27 02:19:22;;;;;;;1999.90;999.90;;;11.80;99.90;;;;;;5066698;28;20187;-82
2021/05/27 02:21:48;;;;;;;1999.90;999.90;;;11.80;99.90;;;;;;5066748;28;20240;-82
2021/05/27 02:24:13;;;;;;;1999.90;999.90;;;11.80;99.90;;;;;;5049954;28;20176;-82
2021/05/27 02:26:39;;;;;;;1999.90;999.90;;;11.80;99.90;;;;;;5049586;28;20587;-82
2021/05/27 02:29:05;;;;;;;1999.90;999.90;;;11.80;99.90;;;;;;5067621;28;20184;-82
2021/05/27 02:31:31;;;;;;;1999.90;999.90;;;11.80;99.90;;;;;;5049610;28;20407;-82
2021/05/27 02:33:57;;;;;;;1999.90;999.90;;;11.70;99.90;;;;;;5067674;28;20169;-82
2021/05/27 02:36:24;;;;;;;1999.90;999.90;;;11.70;99.90;;;;;;5067023;28;20403;-82
2021/05/27 02:38:50;;;;;;;1999.90;999.90;;;11.70;99.90;;;;;;5066442;28;20783;-81
2021/05/27 02:41:16;;;;;;;1999.90;999.90;;;11.70;99.90;;;;;;5066748;28;20168;-82
2021/05/27 02:43:42;;;;;;;1999.90;999.90;;;11.70;99.90;;;;;;5067233;28;20160;-82
2021/05/27 02:46:08;;;;;;;1999.90;999.90;;;11.80;99.90;;;;;;5067404;28;20227;-81
2021/05/27 02:48:34;;;;;;;1999.90;999.90;;;11.80;99.90;;;;;;5049264;28;20563;-82
2021/05/27 02:51:00;;;;;;;1999.90;999.90;;;11.80;99.90;;;;;;5067502;28;20527;-82
2021/05/27 02:53:26;;;;;;;1999.90;999.90;;;11.80;99.90;;;;;;5066719;28;20566;-82
2021/05/27 02:55:54;;;;;;;1999.90;999.90;;;11.80;99.90;;;;;;5066923;28;20219;-82
2021/05/27 02:58:20;;;;;;;1999.90;999.90;;;11.80;99.90;;;;;;5067103;28;20231;-82
2021/05/27 03:00:46;;;;;;;1999.90;999.90;;;11.80;99.90;;;;;;5066823;28;20527;-82
2021/05/27 03:03:15;;;;;;;1999.90;999.90;;;11.80;99.90;;;;;;5048732;28;20164;-82
2021/05/27 03:05:41;;;;;;;1999.90;999.90;;;11.80;99.90;;;;;;5033003;28;20192;-82
2021/05/27 03:08:07;;;;;;;1999.90;999.90;;;11.80;99.90;;;;;;5066632;28;20191;-81
2021/05/27 03:10:33;;;;;;;1999.90;999.90;;;11.80;99.90;;;;;;5066920;28;20290;-82
2021/05/27 03:12:58;;;;;;;1999.90;999.90;;;11.80;99.90;;;;;;5067170;28;20168;-82
2021/05/27 03:15:24;;;;;;;1999.90;999.90;;;11.80;99.90;;;;;;5066851;28;20538;-82
2021/05/27 03:17:49;;;;;;;1999.90;999.90;;;11.80;99.90;;;;;;5067183;28;20188;-82
2021/05/27 03:20:16;;;;;;;1999.90;999.90;;;11.90;99.90;;;;;;5067859;28;20186;-82
2021/05/27 03:22:41;;;;;;;1999.90;999.90;;;11.80;99.90;;;;;;5048898;28;20168;-82
2021/05/27 03:25:08;;;;;;;1999.90;999.90;;;11.80;99.90;;;;;;5066793;28;20192;-82
2021/05/27 03:27:34;;;;;;;1999.90;999.90;;;11.80;99.90;;;;;;5066870;28;20179;-82
2021/05/27 03:30:00;;;;;;;1999.90;999.90;;;11.80;99.90;;;;;;5066545;28;20157;-81
2021/05/27 03:32:26;;;;;;;1999.90;999.90;;;11.90;99.90;;;;;;5066176;28;20214;-82
2021/05/27 03:34:52;;;;;;;1999.90;999.90;;;11.80;99.90;;;;;;5065601;28;20430;-82
2021/05/27 03:37:17;;;;;;;1999.90;999.90;;;11.80;99.90;;;;;;5065581;28;20406;-82
2021/05/27 03:40:10;;;;;;;1999.90;999.90;;;11.90;99.90;;;;;;5065926;28;20188;-81
2021/05/27 03:42:29;;;;;;;1999.90;999.90;;;11.80;99.90;;;;;;5065330;28;20164;-81
2021/05/27 03:44:57;;;;;;;1999.90;999.90;;;11.80;99.90;;;;;;5065174;28;20211;-82
2021/05/27 03:47:23;;;;;;;1999.90;999.90;;;11.70;99.90;;;;;;5065833;28;20171;-81
2021/05/27 03:49:49;;;;;;;1999.90;999.90;;;11.70;99.90;;;;;;5065993;28;20160;-81
2021/05/27 03:52:14;;;;;;;1999.90;999.90;;;11.80;99.90;;;;;;5065449;28;20168;-81
2021/05/27 03:54:40;;;;;;;1999.90;999.90;;;11.80;99.90;;;;;;5066160;28;20469;-81
2021/05/27 03:57:06;;;;;;;1999.90;999.90;;;11.70;99.90;;;;;;5069802;28;20160;-81
2021/05/27 04:02:16;;;;;;;1999.90;999.90;;;11.70;99.90;;;;;;5071432;28;20565;-82
2021/05/27 04:07:27;;;;;;;1999.90;999.90;;;11.70;99.90;;;;;;5071170;28;20230;-82
2021/05/27 04:09:52;;;;;;;1999.90;999.90;;;11.80;99.90;;;;;;5070830;28;20532;-81
2021/05/27 04:17:52;;;;;;;1999.90;999.90;;;11.80;99.90;;;;;;5069702;28;20193;-81
2021/05/27 04:20:20;;;;;;;1999.90;999.90;;;11.80;99.90;;;;;;5069586;28;20236;-81
2021/05/27 04:22:49;;;;;;;1999.90;999.90;;;11.80;99.90;;;;;;5069873;28;20532;-82
2021/05/27 04:25:17;;;;;;;1999.90;999.90;;;11.70;99.90;;;;;;5071425;28;20192;-81
2021/05/27 04:27:44;;;;;;;1999.90;999.90;;;11.70;99.90;;;;;;5070224;28;20547;-82
2021/05/27 04:30:13;;;;;;;1999.90;999.90;;;11.70;99.90;;;;;;5071308;28;20164;-82
2021/05/27 04:35:19;;;;;;;1999.90;999.90;;;11.80;99.90;;;;;;5071432;28;20157;-82
2021/05/27 04:37:44;;;;;;;1999.90;999.90;;;11.80;99.90;;;;;;5069457;28;20184;-81
2021/05/27 04:40:11;;;;;;;1999.90;999.90;;;11.80;99.90;;;;;;5070060;28;20259;-81
2021/05/27 04:42:36;;;;;;;1999.90;999.90;;;11.80;99.90;;;;;;5069986;28;20165;-81
2021/05/27 04:45:02;;;;;;;1999.90;999.90;;;11.80;99.90;;;;;;5070277;28;20187;-82
2021/05/27 04:47:28;;;;;;;1999.90;999.90;;;11.80;99.90;;;;;;5070308;28;20169;-81
2021/05/27 04:49:54;;;;;;;1999.90;999.90;;;11.80;99.90;;;;;;5069963;28;20195;-82
2021/05/27 04:52:19;;;;;;;1999.90;999.90;;;11.70;99.90;;;;;;5070421;28;20160;-82
2021/05/27 04:54:45;;;;;;;1999.90;999.90;;;11.80;99.90;;;;;;5069851;28;20168;-82
2021/05/27 04:57:10;;;;;;;1999.90;999.90;;;11.80;99.90;;;;;;5070118;28;20160;-82
2021/05/27 04:59:36;;;;;;;1999.90;999.90;;;11.80;99.90;;;;;;5069325;28;20264;-82
2021/05/27 05:02:02;;;;;;;1999.90;999.90;;;11.90;99.90;;;;;;5069900;28;20169;-82
2021/05/27 05:04:27;;;;;;;1999.90;999.90;;;11.90;99.90;;;;;;5070848;28;20247;-82
2021/05/27 05:06:53;;;;;;;1999.90;999.90;;;11.90;99.90;;;;;;5068506;28;20219;-82
2021/05/27 05:09:18;;;;;;;1999.90;999.90;;;11.90;99.90;;;;;;5069458;28;20188;-82
2021/05/27 05:11:44;;;;;;;1999.90;999.90;;;11.90;99.90;;;;;;5070033;28;20191;-82
2021/05/27 05:14:10;;;;;;;1999.90;999.90;;;12.00;99.90;;;;;;5069913;28;20168;-82
2021/05/27 05:16:35;;;;;;;1999.90;999.90;;;12.00;99.90;;;;;;5069869;28;20165;-82
2021/05/27 05:19:01;;;;;;;1999.90;999.90;;;12.00;99.90;;;;;;5068767;28;20195;-82
2021/05/27 05:21:27;;;;;;;1999.90;999.90;;;11.90;99.90;;;;;;5069211;28;20221;-82
2021/05/27 05:23:52;;;;;;;1999.90;999.90;;;12.00;99.90;;;;;;5068623;28;20169;-81
2021/05/27 05:26:18;;;;;;;1999.90;999.90;;;12.00;99.90;;;;;;5069132;28;20188;-82
2021/05/27 05:28:43;;;;;;;1999.90;999.90;;;11.90;99.90;;;;;;5051556;28;20184;-82
2021/05/27 05:31:09;;;;;;;1999.90;999.90;;;11.90;99.90;;;;;;5069583;28;20188;-82
2021/05/27 05:33:35;;;;;;;1999.90;999.90;;;11.90;99.90;;;;;;5050675;28;20157;-81
2021/05/27 05:36:00;;;;;;;1999.90;999.90;;;11.90;99.90;;;;;;5069681;28;20214;-82
2021/05/27 05:38:26;;;;;;;1999.90;999.90;;;11.80;99.90;;;;;;5071805;28;20184;-82
2021/05/27 05:40:52;;;;;;;1999.90;999.90;;;11.90;99.90;;;;;;5071565;28;20248;-81
2021/05/27 05:43:17;;;;;;;1999.90;999.90;;;11.90;99.90;;;;;;5071191;28;20159;-82
2021/05/27 05:45:43;;;;;;;1999.90;999.90;;;11.90;99.90;;;;;;5054078;28;20252;-82
2021/05/27 05:48:09;;;;;;;1999.90;999.90;;;11.90;99.90;;;;;;5072027;28;20196;-82
2021/05/27 05:50:48;;;;;;;1999.90;999.90;;;11.90;99.90;;;;;;5071783;28;20187;-82
2021/05/27 05:53:19;;;;;;;1999.90;999.90;;;12.00;99.90;;;;;;5054302;28;20167;-81
2021/05/27 05:55:46;;;;;;;1999.90;999.90;;;11.90;99.90;;;;;;5072067;28;20185;-82
2021/05/27 06:00:39;;;;;;;1999.90;999.90;;;11.90;99.90;;;;;;5121965;22;20635;-82
2021/05/27 06:03:14;;;;;;;1999.90;999.90;;;12.00;99.90;;;;;;5056660;28;20165;-81
2021/05/27 06:05:54;;;;;;;1999.90;999.90;;;11.90;99.90;;;;;;5055569;28;20183;-82
2021/05/27 06:08:35;;;;;;;1999.90;999.90;;;12.00;99.90;;;;;;5056247;28;20186;-82
2021/05/27 06:11:13;;;;;;;1999.90;999.90;;;12.00;99.90;;;;;;5056430;28;20149;-82
2021/05/27 06:13:50;;;;;;;1999.90;999.90;;;12.10;99.90;;;;;;5056353;28;20149;-82
2021/05/27 06:16:28;;;;;;;1999.90;999.90;;;12.10;99.90;;;;;;5035722;28;20226;-82
2021/05/27 06:18:59;;;;;;;1999.90;999.90;;;12.10;99.90;;;;;;5037414;28;20612;-81
2021/05/27 06:21:24;;;;;;;1999.90;999.90;;;12.20;99.90;;;;;;5039116;28;20608;-82
2021/05/27 06:23:50;;;;;;;1999.90;999.90;;;12.20;99.90;;;;;;5038707;28;20203;-81
2021/05/27 06:26:27;;;;;;;1999.90;999.90;;;12.20;99.90;;;;;;5038913;28;20827;-82
2021/05/27 06:28:53;;;;;;;1999.90;999.90;;;12.30;99.90;;;;;;5038465;28;20673;-82
2021/05/27 06:31:24;;;;;;;1999.90;999.90;;;12.30;99.90;;;;;;5056745;28;20161;-82
2021/05/27 06:33:53;;;;;;;1999.90;999.90;;;12.30;99.90;;;;;;5056284;28;20714;-81
2021/05/27 06:36:26;;;;;;;1999.90;999.90;;;12.30;99.90;;;;;;5056926;28;20169;-82
2021/05/27 06:39:28;;;;;;;1999.90;999.90;;;12.30;99.90;;;;;;5055702;28;20192;-82
2021/05/27 06:41:59;;;;;;;1999.90;999.90;;;12.30;99.90;;;;;;5056459;28;20646;-82
2021/05/27 06:44:33;;;;;;;1999.90;999.90;;;12.30;99.90;;;;;;5038590;28;20327;-82
2021/05/27 06:46:58;;;;;;;1999.90;999.90;;;12.30;99.90;;;;;;5056048;28;20186;-82
2021/05/27 06:49:32;;;;;;;1999.90;999.90;;;12.30;99.90;;;;;;5037477;28;20610;-82
2021/05/27 06:55:26;;;;;;;1999.90;999.90;;;12.50;99.90;;;;;;5047488;28;20196;-82
2021/05/27 06:57:55;;;;;;;1999.90;999.90;;;12.40;99.90;;;;;;5038390;28;20224;-82
2021/05/27 07:00:27;;;;;;;1999.90;999.90;;;12.50;99.90;;;;;;5054905;28;20188;-80
2021/05/27 07:02:56;;;;;;;1999.90;999.90;;;12.50;99.90;;;;;;5036363;28;20163;-81
2021/05/27 07:05:35;;;;;;;1999.90;999.90;;;12.40;99.90;;;;;;5053605;28;20237;-80
2021/05/27 07:08:03;;;;;;;1999.90;999.90;;;12.40;99.90;;;;;;5036723;28;20242;-80
2021/05/27 07:10:39;;;;;;;1999.90;999.90;;;12.40;99.90;;;;;;5036149;28;20195;-80
2021/05/27 07:13:23;;;;;;;1999.90;999.90;;;12.50;99.90;;;;;;5036311;28;20164;-80
2021/05/27 07:15:49;;;;;;;1999.90;999.90;;;12.50;99.90;;;;;;5036622;28;20196;-78
2021/05/27 07:18:23;;;;;;;1999.90;999.90;;;12.50;99.90;;;;;;5053477;28;20595;-81
2021/05/27 07:20:48;;;;;;;1999.90;999.90;;;12.50;99.90;;;;;;5036188;28;20165;-80
2021/05/27 07:23:14;;;;;;;1999.90;999.90;;;12.50;99.90;;;;;;5054679;28;20191;-81
2021/05/27 07:25:40;;;;;;;1999.90;999.90;;;12.50;99.90;;;;;;5054965;28;20278;-82
2021/05/27 07:28:06;;;;;;;1999.90;999.90;;;12.50;99.90;;;;;;5054488;28;20208;-81
2021/05/27 07:30:34;;;;;;;1999.90;999.90;;;12.60;99.90;;;;;;5036083;28;20169;-81
2021/05/27 07:33:03;;;;;;;1999.90;999.90;;;12.70;99.90;;;;;;5054241;28;20627;-81
2021/05/27 07:35:29;;;;;;;1999.90;999.90;;;12.80;99.90;;;;;;5054060;28;20168;-81
2021/05/27 07:37:58;;;;;;;1999.90;999.90;;;12.80;99.90;;;;;;5054027;28;20221;-82
2021/05/27 07:40:28;;;;;;;1999.90;999.90;;;12.90;99.90;;;;;;5053922;28;20184;-81
2021/05/27 07:42:53;;;;;;;1999.90;999.90;;;12.90;99.90;;;;;;5035838;28;20175;-81
2021/05/27 07:45:40;;;;;;;1999.90;999.90;;;13.00;99.90;;;;;;5035649;28;20192;-81
2021/05/27 07:48:08;;;;;;;1999.90;999.90;;;13.00;99.90;;;;;;5053012;28;20671;-81
2021/05/27 07:50:37;;;;;;;1999.90;999.90;;;13.10;99.90;;;;;;5035096;28;20207;-81
2021/05/27 07:53:11;;;;;;;1999.90;999.90;;;13.20;99.90;;;;;;5053257;28;20164;-82
2021/05/27 07:55:40;;;;;;;1999.90;999.90;;;13.20;99.90;;;;;;5036188;28;20190;-81
2021/05/27 07:58:12;;;;;;;1999.90;999.90;;;13.20;99.90;;;;;;5035218;28;20955;-81
2021/05/27 08:00:43;;;;;;;1999.90;999.90;;;13.30;99.90;;;;;;5053102;28;20190;-81
2021/05/27 08:03:12;;;;;;;1999.90;999.90;;;13.50;99.90;;;;;;5053026;28;20390;-81
2021/05/27 08:05:41;;;;;;;1999.90;999.90;;;13.50;99.90;;;;;;5052858;28;20188;-81
2021/05/27 08:08:07;;;;;;;1999.90;999.90;;;13.50;99.90;;;;;;5052881;28;20552;-81
2021/05/27 08:10:33;;;;;;;1999.90;999.90;;;13.50;99.90;;;;;;5052853;28;20243;-80
2021/05/27 08:12:58;;;;;;;1999.90;999.90;;;13.40;99.90;;;;;;5052748;28;20543;-81
2021/05/27 08:15:24;;;;;;;1999.90;999.90;;;13.40;99.90;;;;;;5052980;28;20403;-81
2021/05/27 08:17:50;;;;;;;1999.90;999.90;;;13.40;99.90;;;;;;5055148;28;20212;-82
2021/05/27 08:20:16;;;;;;;1999.90;999.90;;;13.50;99.90;;;;;;5036853;28;20659;-81
2021/05/27 08:22:41;;;;;;;1999.90;999.90;;;13.40;99.90;;;;;;5054581;28;20577;-82
2021/05/27 08:25:07;;;;;;;1999.90;999.90;;;13.50;99.90;;;;;;5054964;28;20188;-82
2021/05/27 08:27:34;;;;;;;1999.90;999.90;;;13.30;99.90;;;;;;5036865;28;20164;-83
2021/05/27 08:30:00;;;;;;;1999.90;999.90;;;13.30;99.90;;;;;;5054459;28;20762;-83
2021/05/27 08:32:26;;;;;;;1999.90;999.90;;;13.30;99.90;;;;;;5054707;28;20161;-82
2021/05/27 08:34:52;;;;;;;1999.90;999.90;;;13.20;99.90;;;;;;5054673;28;20615;-82
2021/05/27 08:37:17;;;;;;;1999.90;999.90;;;13.10;99.90;;;;;;5054564;28;20441;-83
2021/05/27 08:39:45;;;;;;;1999.90;999.90;;;13.10;99.90;;;;;;5054331;28;20271;-83
2021/05/27 08:42:11;;;;;;;1999.90;999.90;;;13.10;99.90;;;;;;5056094;28;20238;-83
2021/05/27 08:44:44;;;;;;;1999.90;999.90;;;13.00;99.90;;;;;;5057816;28;20395;-82
2021/05/27 08:47:10;;;;;;;1999.90;999.90;;;13.00;99.90;;;;;;5058149;28;20196;-82
2021/05/27 08:49:50;;;;;;;1999.90;999.90;;;13.10;99.90;;;;;;5058026;28;20188;-83
2021/05/27 08:52:19;;;;;;;1999.90;999.90;;;13.20;99.90;;;;;;5059029;28;20623;-84
2021/05/27 08:54:48;;;;;;;1999.90;999.90;;;13.20;99.90;;;;;;5058220;28;20636;-84
2021/05/27 08:57:16;;;;;;;1999.90;999.90;;;13.10;99.90;;;;;;5058067;28;20153;-83
2021/05/27 08:59:42;;;;;;;1999.90;999.90;;;13.10;99.90;;;;;;5057750;28;20231;-83
2021/05/27 09:02:15;;;;;;;1999.90;999.90;;;13.10;99.90;;;;;;5057714;28;20596;-84
2021/05/27 09:05:21;;;;;;;1999.90;999.90;;;13.20;99.90;;;;;;5057522;28;20383;-82
2021/05/27 09:08:01;;;;;;;1999.90;999.90;;;13.20;99.90;;;;;;5036224;28;20231;-82
2021/05/27 09:10:51;;;;;;;1999.90;999.90;;;13.20;99.90;;;;;;5040232;28;20456;-82
2021/05/27 09:13:26;;;;;;;1999.90;999.90;;;13.30;99.90;;;;;;5039866;28;20434;-83
2021/05/27 09:15:55;;;;;;;1999.90;999.90;;;13.30;99.90;;;;;;5040210;28;20409;-82
2021/05/27 09:18:33;;;;;;;1999.90;999.90;;;13.30;99.90;;;;;;5039594;28;20428;-82
2021/05/27 09:21:12;;;;;;;1999.90;999.90;;;13.50;99.90;;;;;;5039480;28;20168;-83
2021/05/27 09:23:49;;;;;;;1999.90;999.90;;;13.50;99.90;;;;;;5040266;28;20164;-82
2021/05/27 09:26:39;;;;;;;1999.90;999.90;;;13.50;99.90;;;;;;5040082;28;20802;-83
2021/05/27 09:29:17;;;;;;;1999.90;999.90;;;13.50;99.90;;;;;;5057327;28;20204;-82
2021/05/27 09:32:05;;;;;;;1999.90;999.90;;;13.40;99.90;;;;;;5039636;28;20169;-83
2021/05/27 09:34:42;;;;;;;1999.90;999.90;;;13.50;99.90;;;;;;5057021;28;20399;-82
2021/05/27 09:37:33;;;;;;;1999.90;999.90;;;13.60;99.90;;;;;;5057563;28;20399;-82
2021/05/27 09:40:02;;;;;;;1999.90;999.90;;;13.60;99.90;;;;;;5039386;28;20407;-82
2021/05/27 09:42:46;;;;;;;1999.90;999.90;;;13.60;99.90;;;;;;5038488;28;20465;-83
2021/05/27 09:45:18;;;;;;;1999.90;999.90;;;13.50;99.90;;;;;;5039190;28;20451;-81
2021/05/27 09:47:51;;;;;;;1999.90;999.90;;;13.40;99.90;;;;;;5039027;28;20467;-83
2021/05/27 09:50:38;;;;;;;1999.90;999.90;;;13.30;99.90;;;;;;5056346;28;20199;-81
2021/05/27 09:53:22;;;;;;;1999.90;999.90;;;13.20;99.90;;;;;;5055371;28;20508;-82
2021/05/27 09:55:48;;;;;;;1999.90;999.90;;;13.10;99.90;;;;;;5038595;28;20750;-81
2021/05/27 09:58:17;;;;;;;1999.90;999.90;;;13.20;99.90;;;;;;5055978;28;20235;-82
2021/05/27 10:00:47;;;;;;;1999.90;999.90;;;13.20;99.90;;;;;;5038172;28;20196;-81
2021/05/27 10:03:36;;;;;;;1999.90;999.90;;;13.20;99.90;;;;;;5037917;28;20986;-81
2021/05/27 10:06:10;;;;;;;1999.90;999.90;;;13.20;99.90;;;;;;5038159;28;20534;-82
2021/05/27 10:09:32;;;;;;;1999.90;999.90;;;13.20;99.90;;;;;;5038205;28;20430;-81
2021/05/27 10:12:40;;;;;;;1999.90;999.90;;;13.20;99.90;;;;;;4975134;28;20415;-82
2021/05/27 10:15:23;;;;;;;1999.90;999.90;;;13.10;99.90;;;;;;5038156;28;20176;-81
2021/05/27 10:18:06;;;;;;;1999.90;999.90;;;13.10;99.90;;;;;;5055580;28;20689;-82
2021/05/27 10:20:40;;;;;;;1999.90;999.90;;;13.10;99.90;;;;;;5056337;28;20175;-81
2021/05/27 10:23:07;;;;;;;1999.90;999.90;;;13.20;99.90;;;;;;5039643;28;20171;-82
2021/05/27 10:25:39;;;;;;;1999.90;999.90;;;13.10;99.90;;;;;;5056139;28;20442;-81
2021/05/27 10:28:14;;;;;;;1999.90;999.90;;;13.20;99.90;;;;;;5038489;28;20232;-81
2021/05/27 10:30:43;;;;;;;1999.90;999.90;;;13.30;99.90;;;;;;5039158;28;20251;-82
2021/05/27 10:33:20;;;;;;;1999.90;999.90;;;13.20;99.90;;;;;;5056839;28;20425;-82
2021/05/27 10:36:00;;;;;;;1999.90;999.90;;;13.20;99.90;;;;;;5039771;28;20161;-82
2021/05/27 10:38:40;;;;;;;1999.90;999.90;;;13.30;99.90;;;;;;5039186;28;20283;-82
2021/05/27 10:41:09;;;;;;;1999.90;999.90;;;13.50;99.90;;;;;;5039021;28;20168;-83
2021/05/27 10:44:07;;;;;;;;;;;;;;;;;;;;;
2021/05/27 10:46:56;;;;;;;1999.90;999.90;;;13.60;99.90;;;;;;5048446;28;20333;-82
2021/05/27 10:49:45;;;;;;;1999.90;999.90;;;13.50;99.90;;;;;;5038798;28;20857;-83
2021/05/27 10:52:35;;;;;;;1999.90;999.90;;;13.40;99.90;;;;;;5039973;28;20461;-83
2021/05/27 10:55:04;;;;;;;1999.90;999.90;;;13.40;99.90;;;;;;5040003;28;20522;-84
2021/05/27 10:57:42;;;;;;;1999.90;999.90;;;13.20;99.90;;;;;;5039850;28;20164;-85
2021/05/27 11:00:40;;;;;;;1999.90;999.90;;;13.20;99.90;;;;;;5040092;28;20453;-85
2021/05/27 11:03:47;;;;;;;1999.90;999.90;;;12.90;99.90;;;;;;5012961;28;20169;-84
2021/05/27 11:06:32;;;;;;;1999.90;999.90;;;12.90;99.90;;;;;;5039316;28;21008;-83
2021/05/27 11:09:16;;;;;;;1999.90;999.90;;;12.80;99.90;;;;;;5039237;28;20181;-83
2021/05/27 11:12:03;;;;;;;1999.90;999.90;;;12.60;99.90;;;;;;5039986;28;20475;-83
2021/05/27 11:14:39;;;;;;;1999.90;999.90;;;12.60;99.90;;;;;;5040019;28;20168;-83
2021/05/27 11:17:15;;;;;;;1999.90;999.90;;;12.70;99.90;;;;;;5039281;28;20168;-83
2021/05/27 11:25:45;;;;;;;1999.90;999.90;;;12.90;99.90;;;;;;5022549;28;20223;-84
2021/05/27 11:28:11;;;;;;;1999.90;999.90;;;12.90;99.90;;;;;;5039132;28;20216;-84
2021/05/27 11:31:11;;;;;;;1999.90;999.90;;;12.80;99.90;;;;;;5057598;28;20667;-84
2021/05/27 11:33:40;;;;;;;1999.90;999.90;;;12.70;99.90;;;;;;5040534;28;20161;-84
2021/05/27 11:36:12;;;;;;;1999.90;999.90;;;12.70;99.90;;;;;;5039974;28;20173;-83
2021/05/27 11:38:39;;;;;;;1999.90;999.90;;;12.80;99.90;;;;;;5057608;28;20525;-84
2021/05/27 11:41:19;;;;;;;1999.90;999.90;;;12.80;99.90;;;;;;5038929;28;20407;-85
2021/05/27 11:43:53;;;;;;;1999.90;999.90;;;12.90;99.90;;;;;;5039243;28;20168;-84
2021/05/27 11:46:38;;;;;;;1999.90;999.90;;;13.10;99.90;;;;;;5039747;28;20609;-83
2021/05/27 11:49:22;;;;;;;1999.90;999.90;;;13.20;99.90;;;;;;5038332;28;20607;-84
2021/05/27 11:51:48;;;;;;;1999.90;999.90;;;13.20;99.90;;;;;;5039432;28;20199;-83
2021/05/27 11:54:25;;;;;;;1999.90;999.90;;;13.30;99.90;;;;;;5039429;28;20226;-84
2021/05/27 11:57:02;;;;;;;1999.90;999.90;;;13.50;99.90;;;;;;5038653;28;20578;-84
2021/05/27 11:59:35;;;;;;;1999.90;999.90;;;13.60;99.90;;;;;;5038537;28;20439;-84
2021/05/27 12:02:10;;;;;;;1999.90;999.90;;;13.60;99.90;;;;;;5039149;28;20200;-84
2021/05/27 12:04:39;;;;;;;1999.90;999.90;;;13.70;99.90;;;;;;5039615;28;20387;-84
2021/05/27 12:07:08;;;;;;;1999.90;999.90;;;13.80;99.90;;;;;;5056785;28;20529;-84
2021/05/27 12:09:57;;;;;;;1999.90;999.90;;;13.70;99.90;;;;;;5039785;28;20184;-84
2021/05/27 12:12:27;;;;;;;1999.90;999.90;;;13.70;99.90;;;;;;5039526;28;20921;-83
2021/05/27 12:14:57;;;;;;;1999.90;999.90;;;13.80;99.90;;;;;;5056829;28;20403;-84
2021/05/27 12:17:44;;;;;;;1999.90;999.90;;;13.80;99.90;;;;;;5040667;28;20422;-83
2021/05/27 12:20:20;;;;;;;1999.90;999.90;;;13.90;99.90;;;;;;5060105;28;20389;-83
2021/05/27 12:23:06;;;;;;;1999.90;999.90;;;13.90;99.90;;;;;;5042258;28;20407;-84
2021/05/27 12:26:09;;;;;;;1999.90;999.90;;;13.90;99.90;;;;;;5039096;28;20462;-83
2021/05/27 12:28:40;;;;;;;1999.90;999.90;;;13.90;99.90;;;;;;5029723;28;20439;-83
2021/05/27 12:31:26;;;;;;;1999.90;999.90;;;13.90;99.90;;;;;;5041477;28;20871;-83
2021/05/27 12:34:07;;;;;;;1999.90;999.90;;;13.90;99.90;;;;;;5042572;28;20497;-83
2021/05/27 12:37:12;;;;;;;1999.90;999.90;;;13.90;99.90;;;;;;5041300;28;20460;-83
2021/05/27 12:39:39;;;;;;;1999.90;999.90;;;14.00;99.90;;;;;;5041961;28;20502;-83
2021/05/27 12:42:25;;;;;;;1999.90;999.90;;;14.00;99.90;;;;;;5059083;28;20765;-83
2021/05/27 12:45:00;;;;;;;1999.90;999.90;;;14.00;99.90;;;;;;5040781;28;20975;-83
2021/05/27 12:51:44;;;;;;;1999.90;999.90;;;14.40;99.90;;;;;;4957451;28;20476;-82